KCAE/CAE METAR and TAF weather

Enter ICAO airport designator
Station Type Date Time Source
KCAE METAR 2019/04/19 21:56 UTC NOAA

KCAE 192156Z 17011G21KT 10SM BKN018 BKN022 21/17 A2950 RMK AO2 SLP987 T02110167 $


Station Type Date Time Source
KCAE Decoded METAR 2019/04/19 21:56 UTC NOAA

COLUMBIA METROPOLITAN AIRPORT , SC, United States (KCAE) 33-57N 081-07W 73M
Apr 19, 2019 - 05:56 PM EDT / 2019.04.19 2156 UTC
Wind: from the S (170 degrees) at 13 MPH (11 KT) gusting to 24 MPH (21 KT):0
Visibility: 10 mile(s):0
Sky conditions: mostly cloudy
Temperature: 70.0 F (21.1 C)
Dew Point: 62.1 F (16.7 C)
Relative Humidity: 75%
Pressure (altimeter): 29.5 in. Hg (998 hPa)
ob: KCAE 192156Z 17011G21KT 10SM BKN018 BKN022 21/17 A2950 RMK AO2 SLP987 T02110167
cycle: 22

Station Type Date Time Source
KCAE TAF 2019/04/19 22:45 UTC NOAA

TAF
AMD KCAE 192143Z 1922/2018 18020G30KT P6SM VCSH BKN015 OVC025
FM200000 22013G22KT P6SM SCT025 BKN035
FM201400 23015G25KT P6SM BKN035

Example: see airport list